Lady Maria Luisa — 3ENE4 — position and weather

sailwx.info

Track history (hours):
 
Tides and Currents Weather Stations Pressure Air Temp Water Temp Dewpoint Dewpoint Depression Visibility Wind Speed Wind Dir Waves Ship Positions

Lady Maria Luisa

Last reported at 2015-Jan-15 13:12 UTC. Time now 2015-Jan-25 14:21 UTC.
Position S 34°03' E 018°12'.
Warning: this ship's position is 10 days out of date.

Length 224 m; draft 7.2 m.

Type: Cargo ship. MMSI: 355777000.

Date/timePositionNaut miles runAvg speedWind from/ knotsBaromVisibWave heightAir tempDewpointWater temp
2015-Jan-15 13:12S 34°03' E 018°12'1011.5
2015-Jan-15 12:20S 34°13' E 018°15'  
2015-Jan-12 20:31S 29°51' E 031°05'3 2.5
2015-Jan-12 19:20S 29°52' E 031°02'0 0.0
2015-Jan-12 14:32S 29°52' E 031°02'0 0.0
2015-Jan-12 12:32S 29°52' E 031°02'0 0.0
2015-Jan-12 11:32S 29°52' E 031°02'0 0.0
2015-Jan-12 10:32S 29°52' E 031°02'0 0.0
2015-Jan-12 09:20S 29°52' E 031°02'0 0.0
2015-Jan-12 08:26S 29°52' E 031°02'0 0.0
2015-Jan-12 07:32S 29°52' E 031°02'0 0.0
2015-Jan-12 06:33S 29°52' E 031°02'13 4.4
2015-Jan-12 03:33S 29°47' E 031°16'8 7.9
2015-Jan-12 02:33S 29°45' E 031°25'1212.5
2015-Jan-12 01:33S 29°42' E 031°39'1413.9
2015-Jan-12 00:33S 29°39' E 031°55'1814.0
2015-Jan-11 23:15S 29°34' E 032°15'1213.3
2015-Jan-11 22:22S 29°31' E 032°28'1512.7
2015-Jan-11 21:11S 29°27' E 032°44'912.6
2015-Jan-11 20:29S 29°25' E 032°54'6 2.6
2015-Jan-11 18:12S 29°26' E 032°47'2212.7
2015-Jan-11 16:26S 29°20' E 033°12'1512.7
2015-Jan-11 15:13S 29°16' E 033°29'912.8
2015-Jan-11 14:32S 29°14' E 033°39'  
Track history (hours):
 
Tides and Currents Weather Stations Pressure Air Temp Water Temp Dewpoint Dewpoint Depression Visibility Wind Speed Wind Dir Waves Ship Positions

Lady Maria Luisa

Last reported at 2015-Jan-15 13:12 UTC. Time now 2015-Jan-25 14:21 UTC.
Position S 34°03' E 018°12'.
Warning: this ship's position is 10 days out of date.

Length 224 m; draft 7.2 m.

Type: Cargo ship. MMSI: 355777000.

Date/timePositionNaut miles runAvg speedWind from/ knotsBaromVisibWave heightAir tempDewpointWater temp
2015-Jan-15 13:12S 34°03' E 018°12'1011.5
2015-Jan-15 12:20S 34°13' E 018°15'  
2015-Jan-12 20:31S 29°51' E 031°05'3 2.5
2015-Jan-12 19:20S 29°52' E 031°02'0 0.0
2015-Jan-12 14:32S 29°52' E 031°02'0 0.0
2015-Jan-12 12:32S 29°52' E 031°02'0 0.0
2015-Jan-12 11:32S 29°52' E 031°02'0 0.0
2015-Jan-12 10:32S 29°52' E 031°02'0 0.0
2015-Jan-12 09:20S 29°52' E 031°02'0 0.0
2015-Jan-12 08:26S 29°52' E 031°02'0 0.0
2015-Jan-12 07:32S 29°52' E 031°02'0 0.0
2015-Jan-12 06:33S 29°52' E 031°02'13 4.4
2015-Jan-12 03:33S 29°47' E 031°16'8 7.9
2015-Jan-12 02:33S 29°45' E 031°25'1212.5
2015-Jan-12 01:33S 29°42' E 031°39'1413.9
2015-Jan-12 00:33S 29°39' E 031°55'1814.0
2015-Jan-11 23:15S 29°34' E 032°15'1213.3
2015-Jan-11 22:22S 29°31' E 032°28'1512.7
2015-Jan-11 21:11S 29°27' E 032°44'912.6
2015-Jan-11 20:29S 29°25' E 032°54'6 2.6
2015-Jan-11 18:12S 29°26' E 032°47'2212.7
2015-Jan-11 16:26S 29°20' E 033°12'1512.7
2015-Jan-11 15:13S 29°16' E 033°29'912.8
2015-Jan-11 14:32S 29°14' E 033°39'  

Dump ship's entire track history